Time;durP1;ratioP1;P1;durP2;ratioP2;P2;SDS_P1;SDS_P2;PMS_P1;PMS_P2;Temp;Humidity;BMP_temperature;BMP_pressure;BME280_temperature;BME280_humidity;BME280_pressure;Samples;Min_cycle;Max_cycle;Signal;HPM_P1;HPM_P2
2022/01/07 00:00:16;;;;;;;9.10;2.85;;;;;;;-0.60;62.82;100538.81;4412165;32;33827;-64
2022/01/07 00:02:48;;;;;;;7.87;2.70;;;;;;;-0.86;63.52;100537.09;4423772;32;33619;-65
2022/01/07 00:05:16;;;;;;;10.82;2.90;;;;;;;-0.62;62.82;100548.87;4419503;32;33896;-66
2022/01/07 00:07:44;;;;;;;8.48;3.25;;;;;;;-0.90;63.85;100549.37;4437448;32;34593;-65
2022/01/07 00:10:15;;;;;;;8.13;2.78;;;;;;;-1.07;63.90;100561.25;4421480;32;33265;-65
2022/01/07 00:12:42;;;;;;;6.25;2.53;;;;;;;-0.54;62.69;100561.44;4437123;32;33693;-66
2022/01/07 00:15:10;;;;;;;5.12;2.45;;;;;;;-0.55;61.84;100572.37;4445155;32;33886;-66
2022/01/07 00:17:38;;;;;;;9.85;2.87;;;;;;;-0.31;61.61;100573.94;4436384;32;34433;-66
2022/01/07 00:20:09;;;;;;;5.57;2.60;;;;;;;-0.15;61.10;100574.72;4438059;32;33798;-66
2022/01/07 00:22:38;;;;;;;5.40;2.37;;;;;;;0.45;58.84;100572.03;4440685;32;33141;-66
2022/01/07 00:25:07;;;;;;;7.00;2.30;;;;;;;0.31;59.65;100563.03;4442476;32;34745;-66
2022/01/07 00:27:35;;;;;;;7.60;3.08;;;;;;;-0.54;61.68;100566.53;4427266;32;33853;-66
2022/01/07 00:30:04;;;;;;;6.00;2.60;;;;;;;-0.44;61.87;100566.72;4444249;32;34616;-66
2022/01/07 00:32:32;;;;;;;6.53;2.65;;;;;;;-0.17;61.50;100570.19;4445832;32;34030;-66
2022/01/07 00:35:00;;;;;;;6.47;2.80;;;;;;;0.05;60.18;100571.59;4447878;32;33539;-66
2022/01/07 00:37:28;;;;;;;6.75;2.97;;;;;;;0.05;60.12;100584.31;4443540;32;33634;-66
2022/01/07 00:39:56;;;;;;;7.68;3.25;;;;;;;1.10;57.44;100573.97;4443594;32;34082;-66
2022/01/07 00:42:23;;;;;;;6.30;2.60;;;;;;;1.63;55.85;100573.00;4417283;32;33149;-66
2022/01/07 00:44:51;;;;;;;7.43;3.10;;;;;;;1.94;54.80;100570.69;4448080;32;34517;-66
2022/01/07 00:47:19;;;;;;;9.00;3.40;;;;;;;1.77;54.40;100574.25;4443487;32;34544;-66
2022/01/07 00:49:46;;;;;;;5.93;2.62;;;;;;;1.98;54.21;100570.22;4439722;32;32520;-66
2022/01/07 00:52:14;;;;;;;6.28;2.67;;;;;;;2.41;52.40;100563.84;4433590;32;33672;-66
2022/01/07 00:54:42;;;;;;;7.78;3.05;;;;;;;1.50;55.19;100552.19;4440781;32;34654;-66
2022/01/07 00:57:09;;;;;;;7.70;3.15;;;;;;;1.03;57.00;100562.31;4438940;32;33502;-66
2022/01/07 00:59:37;;;;;;;5.50;2.60;;;;;;;0.35;59.08;100570.25;4439571;32;33664;-66
2022/01/07 01:02:05;;;;;;;7.85;2.70;;;;;;;0.82;57.75;100566.28;4438940;32;34193;-66
2022/01/07 01:04:43;;;;;;;4.70;1.70;;;;;;;0.48;58.77;100562.13;4442534;32;34040;-66
2022/01/07 01:07:12;;;;;;;6.03;2.62;;;;;;;-0.04;60.29;100552.84;4440596;32;34259;-66
2022/01/07 01:09:39;;;;;;;6.15;2.50;;;;;;;-0.38;61.69;100546.97;4443775;32;34555;-66
2022/01/07 01:12:09;;;;;;;6.95;2.90;;;;;;;-0.37;61.72;100543.66;4432735;32;34323;-66
2022/01/07 01:14:37;;;;;;;7.43;2.40;;;;;;;-0.71;63.51;100542.84;4445321;32;33634;-66
2022/01/07 01:17:05;;;;;;;5.22;2.47;;;;;;;-0.50;62.51;100539.00;4442701;32;33834;-66
2022/01/07 01:19:32;;;;;;;6.97;1.98;;;;;;;-0.41;61.92;100539.94;4440563;32;33882;-66
2022/01/07 01:22:00;;;;;;;9.38;2.03;;;;;;;-0.43;61.68;100537.97;4448739;32;33446;-66
2022/01/07 01:24:27;;;;;;;5.20;2.05;;;;;;;-0.48;61.71;100531.53;4440105;32;34024;-66
2022/01/07 01:26:55;;;;;;;10.93;2.03;;;;;;;-0.55;62.34;100529.13;4439669;32;33725;-65
2022/01/07 01:29:23;;;;;;;6.43;2.60;;;;;;;-0.48;61.78;100514.63;4445937;32;34502;-66
2022/01/07 01:31:51;;;;;;;6.12;2.08;;;;;;;-0.47;61.86;100510.41;4424180;32;31741;-66
2022/01/07 01:34:18;;;;;;;5.78;1.92;;;;;;;-0.37;61.13;100505.47;4436852;32;33579;-66
2022/01/07 01:36:46;;;;;;;7.10;2.45;;;;;;;-0.41;61.07;100519.59;4443843;32;34741;-66
2022/01/07 01:39:14;;;;;;;8.05;3.08;;;;;;;-0.31;60.79;100531.56;4439946;32;34110;-66
2022/01/07 01:41:42;;;;;;;7.72;2.12;;;;;;;0.34;58.72;100533.66;4439780;32;34372;-66
2022/01/07 01:44:10;;;;;;;6.00;2.15;;;;;;;0.55;57.63;100534.81;4448281;32;33807;-66
2022/01/07 01:46:38;;;;;;;7.28;2.58;;;;;;;0.49;57.58;100539.34;4445112;32;33957;-66
2022/01/07 01:49:06;;;;;;;5.85;2.80;;;;;;;-0.74;61.60;100532.34;4413569;32;32257;-66
2022/01/07 01:51:34;;;;;;;7.70;3.00;;;;;;;-0.29;60.38;100545.34;4447922;32;33333;-66
2022/01/07 01:54:03;;;;;;;4.87;2.12;;;;;;;0.50;58.42;100553.91;4424443;32;33717;-66
2022/01/07 01:56:32;;;;;;;6.80;2.58;;;;;;;0.44;59.53;100558.38;4428233;32;34609;-66
2022/01/07 01:59:00;;;;;;;8.02;2.28;;;;;;;-0.29;61.37;100560.62;4442242;32;34824;-66
2022/01/07 02:01:28;;;;;;;9.45;3.72;;;;;;;-1.05;64.37;100563.94;4424119;26;33024;-90
2022/01/07 02:03:56;;;;;;;7.72;2.60;;;;;;;-0.93;64.52;100575.34;4395795;32;33387;-89
2022/01/07 02:06:24;;;;;;;6.87;2.60;;;;;;;-1.45;66.19;100576.00;4428152;26;32472;-63
2022/01/07 02:08:52;;;;;;;5.82;2.60;;;;;;;-1.65;67.40;100585.69;4425608;32;31353;-61
2022/01/07 02:11:20;;;;;;;6.03;3.08;;;;;;;-1.86;68.16;100575.06;4438954;32;33590;-61
2022/01/07 02:13:48;;;;;;;9.68;3.72;;;;;;;-2.06;69.30;100594.91;4443425;32;34256;-61
2022/01/07 02:16:15;;;;;;;6.50;2.75;;;;;;;-2.11;69.70;100601.12;4431154;32;32590;-61
2022/01/07 02:18:44;;;;;;;7.53;3.15;;;;;;;-2.08;69.66;100586.22;4443092;32;34010;-61
2022/01/07 02:21:11;;;;;;;9.32;3.20;;;;;;;-2.05;69.25;100584.00;4441871;32;33352;-61
2022/01/07 02:23:39;;;;;;;8.18;2.60;;;;;;;-1.91;68.53;100586.37;4448160;32;34113;-61
2022/01/07 02:26:07;;;;;;;7.68;3.58;;;;;;;-1.85;68.26;100591.22;4446434;32;34591;-61
2022/01/07 02:28:34;;;;;;;9.05;3.47;;;;;;;-1.82;67.79;100591.53;4450618;32;34092;-61
2022/01/07 02:31:02;;;;;;;8.27;3.28;;;;;;;-1.59;67.16;100596.50;4435153;32;33284;-61
2022/01/07 02:33:30;;;;;;;9.93;3.37;;;;;;;-1.75;67.49;100585.47;4446476;32;34907;-61
2022/01/07 02:35:57;;;;;;;10.25;3.25;;;;;;;-1.74;67.58;100589.78;4444389;32;34559;-61
2022/01/07 02:38:25;;;;;;;7.95;3.42;;;;;;;-1.76;67.78;100592.16;4435664;32;34031;-61
2022/01/07 02:40:52;;;;;;;8.77;2.83;;;;;;;-1.62;67.19;100604.72;4447162;32;33475;-61
2022/01/07 02:43:20;;;;;;;10.05;3.12;;;;;;;-1.58;66.86;100598.31;4439024;32;33627;-61
2022/01/07 02:45:47;;;;;;;8.43;2.78;;;;;;;-1.71;67.08;100600.28;4444780;32;33985;-61
2022/01/07 02:48:15;;;;;;;8.23;2.85;;;;;;;-1.74;67.15;100602.50;4435573;32;33043;-61
2022/01/07 02:50:42;;;;;;;9.52;3.37;;;;;;;-1.68;66.68;100600.59;4441834;32;34293;-61
2022/01/07 02:53:11;;;;;;;10.00;2.95;;;;;;;-1.55;66.83;100593.53;4451017;32;33880;-61
2022/01/07 02:55:40;;;;;;;10.32;3.12;;;;;;;-1.99;67.81;100590.66;4453239;32;33809;-61
2022/01/07 02:58:08;;;;;;;9.50;3.03;;;;;;;-1.56;66.76;100589.22;4431512;32;33798;-61
2022/01/07 03:00:36;;;;;;;5.85;2.60;;;;;;;-1.35;65.62;100592.16;4441135;32;33086;-61
2022/01/07 03:03:05;;;;;;;7.60;3.37;;;;;;;-1.30;65.16;100586.81;4450877;32;33965;-61
2022/01/07 03:05:33;;;;;;;7.57;3.00;;;;;;;-0.20;62.05;100583.53;4443550;32;33652;-61
2022/01/07 03:08:00;;;;;;;6.97;2.72;;;;;;;-0.14;61.12;100584.12;4432028;32;32523;-61
2022/01/07 03:10:30;;;;;;;7.00;2.42;;;;;;;0.43;58.53;100574.44;4449196;32;32033;-61
2022/01/07 03:13:00;;;;;;;8.05;2.58;;;;;;;0.35;58.91;100583.00;4434321;32;34619;-61
2022/01/07 03:15:28;;;;;;;7.80;3.17;;;;;;;0.15;59.62;100571.72;4431277;32;34029;-61
2022/01/07 03:17:57;;;;;;;6.53;3.15;;;;;;;0.21;59.84;100586.72;4441030;32;34583;-61
2022/01/07 03:20:24;;;;;;;9.27;2.78;;;;;;;0.40;59.41;100589.41;4446282;32;33645;-61
2022/01/07 03:22:52;;;;;;;6.97;3.15;;;;;;;0.47;58.93;100586.72;4432930;32;34711;-61
2022/01/07 03:25:20;;;;;;;8.88;3.12;;;;;;;0.07;59.42;100597.22;4444587;32;34464;-61
2022/01/07 03:27:48;;;;;;;7.53;3.30;;;;;;;-1.25;63.59;100610.19;4419251;32;32444;-62
2022/01/07 03:30:17;;;;;;;8.48;3.25;;;;;;;-1.19;63.90;100623.53;4441608;32;33048;-61
2022/01/07 03:32:46;;;;;;;9.52;3.15;;;;;;;-1.58;65.42;100621.19;4445189;32;33881;-61
2022/01/07 03:35:14;;;;;;;9.85;3.47;;;;;;;-1.82;66.38;100619.47;4446190;32;34679;-62
2022/01/07 03:37:43;;;;;;;6.65;3.05;;;;;;;-2.07;67.12;100624.44;4443777;32;34290;-61
2022/01/07 03:40:12;;;;;;;7.87;3.47;;;;;;;-2.25;67.83;100635.19;4447960;32;32871;-61
2022/01/07 03:42:40;;;;;;;9.57;2.87;;;;;;;-1.86;66.60;100638.53;4437403;32;34269;-61
2022/01/07 03:45:09;;;;;;;8.23;2.62;;;;;;;-1.15;64.10;100618.03;4428017;32;33741;-61
2022/01/07 03:47:37;;;;;;;7.03;2.97;;;;;;;-0.33;61.53;100629.81;4424547;32;34283;-61
2022/01/07 03:50:07;;;;;;;9.15;3.33;;;;;;;-0.51;61.54;100627.94;4431397;32;33088;-61
2022/01/07 03:52:35;;;;;;;5.47;2.70;;;;;;;0.27;59.45;100622.09;4442690;32;34619;-61
2022/01/07 03:55:05;;;;;;;9.00;3.65;;;;;;;0.26;59.12;100630.50;4446123;32;34771;-61
2022/01/07 03:57:32;;;;;;;8.10;2.78;;;;;;;-0.56;61.68;100634.19;4435095;32;34099;-61
2022/01/07 04:00:00;;;;;;;8.85;3.40;;;;;;;0.18;59.65;100628.09;4444796;32;33378;-61
2022/01/07 04:02:27;;;;;;;8.05;3.47;;;;;;;-0.70;61.31;100635.31;4433037;32;34383;-61
2022/01/07 04:04:56;;;;;;;9.23;4.25;;;;;;;-1.34;64.19;100639.75;4444001;32;33926;-61
2022/01/07 04:07:23;;;;;;;7.93;3.50;;;;;;;-1.14;63.31;100640.19;4443770;32;34720;-61
2022/01/07 04:09:51;;;;;;;11.38;3.80;;;;;;;-1.07;63.46;100639.16;4443148;32;33261;-62
2022/01/07 04:12:18;;;;;;;8.02;3.40;;;;;;;-0.57;61.71;100633.28;4446147;32;33774;-61
2022/01/07 04:14:49;;;;;;;7.30;3.85;;;;;;;-0.29;60.40;100626.81;4443516;32;34551;-61
2022/01/07 04:17:17;;;;;;;7.65;3.55;;;;;;;0.04;59.24;100622.38;4446127;32;33919;-62
2022/01/07 04:19:45;;;;;;;8.93;4.55;;;;;;;-0.15;60.23;100629.84;4443284;32;33365;-61
2022/01/07 04:22:12;;;;;;;11.65;5.20;;;;;;;-0.29;60.20;100626.81;4442135;32;34626;-61
2022/01/07 04:24:39;;;;;;;11.15;5.18;;;;;;;-0.33;60.35;100627.25;4431648;32;32242;-62
2022/01/07 04:27:07;;;;;;;13.13;4.72;;;;;;;1.09;56.05;100628.34;4446153;32;33630;-61
2022/01/07 04:29:35;;;;;;;13.07;4.32;;;;;;;1.04;55.69;100619.31;4447718;32;33376;-61
2022/01/07 04:32:05;;;;;;;10.25;4.47;;;;;;;0.70;56.47;100623.75;4443681;32;34011;-61
2022/01/07 04:34:32;;;;;;;9.23;3.85;;;;;;;-0.89;61.05;100630.00;4445077;32;34848;-61
2022/01/07 04:37:00;;;;;;;10.70;3.92;;;;;;;-1.05;61.60;100630.94;4444169;32;34566;-61
2022/01/07 04:39:28;;;;;;;15.32;5.07;;;;;;;-1.52;63.45;100631.97;4446561;32;34208;-61
2022/01/07 04:41:59;;;;;;;8.80;3.92;;;;;;;-2.03;65.42;100630.75;4431268;32;34104;-62
2022/01/07 04:44:26;;;;;;;11.30;4.68;;;;;;;-2.21;65.95;100630.59;4441799;32;34360;-61
2022/01/07 04:46:54;;;;;;;13.88;5.78;;;;;;;-2.60;68.05;100653.41;4440400;32;33851;-61
2022/01/07 04:49:22;;;;;;;14.10;4.95;;;;;;;-2.70;68.82;100649.72;4440653;32;33985;-61
2022/01/07 04:51:49;;;;;;;9.32;4.12;;;;;;;-2.91;69.93;100648.25;4447023;32;33933;-61
2022/01/07 04:54:16;;;;;;;9.02;3.97;;;;;;;-2.90;69.76;100660.19;4439435;32;33619;-60
2022/01/07 04:56:44;;;;;;;10.48;4.37;;;;;;;-2.69;68.94;100662.53;4443732;32;34760;-61
2022/01/07 04:59:12;;;;;;;7.75;3.55;;;;;;;-2.61;67.44;100661.78;4446533;32;32858;-61
2022/01/07 05:01:40;;;;;;;7.55;3.37;;;;;;;-2.25;66.22;100658.91;4443911;32;33702;-61
2022/01/07 05:04:08;;;;;;;8.38;3.58;;;;;;;-2.22;65.76;100644.03;4438339;32;32511;-61
2022/01/07 05:06:45;;;;;;;11.32;3.37;;;;;;;-2.43;66.49;100651.84;4430714;32;32368;-61
2022/01/07 05:09:16;;;;;;;7.37;2.78;;;;;;;-2.04;64.98;100649.28;4440945;32;33891;-61
2022/01/07 05:11:44;;;;;;;6.70;3.40;;;;;;;-1.11;61.73;100652.31;4444158;32;34635;-61
2022/01/07 05:14:13;;;;;;;8.77;3.30;;;;;;;-0.25;58.88;100641.66;4445605;32;33920;-62
2022/01/07 05:16:40;;;;;;;8.52;3.30;;;;;;;-0.08;57.99;100637.34;4445377;32;33655;-61
2022/01/07 05:19:09;;;;;;;5.62;2.20;;;;;;;0.32;55.43;100636.19;4439804;32;33351;-61
2022/01/07 05:21:37;;;;;;;6.97;3.05;;;;;;;0.38;55.04;100639.34;4431097;32;33623;-61
2022/01/07 05:24:06;;;;;;;8.60;2.80;;;;;;;0.03;55.93;100636.75;4431962;32;32708;-61
2022/01/07 05:26:33;;;;;;;6.75;3.00;;;;;;;-0.44;57.48;100632.91;4440758;32;32650;-61
2022/01/07 05:29:01;;;;;;;7.28;2.90;;;;;;;-1.48;60.23;100646.81;4446695;32;33285;-61
2022/01/07 05:31:29;;;;;;;8.82;3.03;;;;;;;-2.92;65.83;100661.63;4433927;32;34290;-61
2022/01/07 05:33:57;;;;;;;8.70;3.67;;;;;;;-3.15;67.24;100667.56;4432488;32;34473;-61
2022/01/07 05:36:25;;;;;;;9.32;3.28;;;;;;;-3.21;67.67;100661.81;4432410;32;34016;-61
2022/01/07 05:38:52;;;;;;;9.70;3.87;;;;;;;-3.42;67.93;100656.16;4451614;32;34027;-61
2022/01/07 05:41:20;;;;;;;6.78;2.90;;;;;;;-3.63;68.72;100668.88;4447149;32;33756;-61
2022/01/07 05:43:49;;;;;;;10.80;3.47;;;;;;;-3.59;68.10;100666.00;4448774;32;34332;-61
2022/01/07 05:46:17;;;;;;;8.70;3.80;;;;;;;-2.62;65.74;100665.03;4428512;32;33934;-61
2022/01/07 05:48:46;;;;;;;11.50;4.28;;;;;;;-1.70;61.82;100651.25;4444498;32;34303;-61
2022/01/07 05:51:14;;;;;;;9.93;3.85;;;;;;;-1.11;59.51;100655.75;4449182;32;33944;-61
2022/01/07 05:53:41;;;;;;;13.80;3.17;;;;;;;-1.02;59.21;100660.91;4435396;32;33872;-62
2022/01/07 05:56:09;;;;;;;11.95;3.08;;;;;;;-0.51;57.13;100658.47;4448425;32;33867;-61
2022/01/07 05:58:37;;;;;;;7.78;3.08;;;;;;;-0.77;56.58;100655.78;4445789;32;33249;-60
2022/01/07 06:01:05;;;;;;;12.15;3.33;;;;;;;-1.43;59.20;100678.69;4438905;32;33658;-61
2022/01/07 06:03:33;;;;;;;7.80;3.62;;;;;;;-0.72;56.48;100659.72;4442232;32;34664;-61
2022/01/07 06:06:01;;;;;;;9.95;4.18;;;;;;;-1.91;59.98;100657.50;4446922;32;33970;-61
2022/01/07 06:08:28;;;;;;;7.72;3.55;;;;;;;-2.97;62.90;100673.81;4433028;32;33211;-61
2022/01/07 06:10:56;;;;;;;8.20;3.65;;;;;;;-3.04;63.63;100676.38;4451204;32;34455;-62
2022/01/07 06:13:23;;;;;;;8.98;2.97;;;;;;;-2.77;63.43;100676.03;4441676;32;34550;-61
2022/01/07 06:15:51;;;;;;;9.05;3.10;;;;;;;-3.08;64.15;100690.34;4451034;32;34605;-61
2022/01/07 06:18:19;;;;;;;8.57;2.92;;;;;;;-3.31;65.52;100681.78;4445240;32;33244;-60
2022/01/07 06:20:46;;;;;;;9.45;3.62;;;;;;;-3.53;66.24;100686.94;4444576;32;33597;-61
2022/01/07 06:23:14;;;;;;;12.48;4.72;;;;;;;-3.82;67.75;100681.97;4442172;32;34456;-61
2022/01/07 06:25:44;;;;;;;12.40;4.72;;;;;;;-3.71;67.86;100680.66;4432741;32;33509;-61
2022/01/07 06:28:12;;;;;;;10.07;4.60;;;;;;;-4.03;68.90;100694.69;4439445;32;33542;-62
2022/01/07 06:30:39;;;;;;;10.80;4.37;;;;;;;-3.86;68.83;100689.94;4447336;32;34382;-62
2022/01/07 06:33:07;;;;;;;10.95;5.12;;;;;;;-3.50;67.80;100696.53;4449849;32;33653;-61
2022/01/07 06:35:35;;;;;;;12.23;5.45;;;;;;;-3.44;67.10;100692.16;4444300;32;34485;-60
2022/01/07 06:38:04;;;;;;;12.50;4.62;;;;;;;-3.51;67.39;100705.75;4448365;32;33435;-60
2022/01/07 06:40:32;;;;;;;12.55;4.95;;;;;;;-3.41;66.78;100697.56;4445537;32;34150;-61
2022/01/07 06:43:00;;;;;;;13.38;5.25;;;;;;;-3.45;67.55;100693.78;4445883;32;33990;-61
2022/01/07 06:45:27;;;;;;;12.93;6.03;;;;;;;-3.48;67.20;100706.09;4431696;32;33341;-61
2022/01/07 06:47:55;;;;;;;11.55;5.65;;;;;;;-3.48;68.11;100706.09;4436015;32;33469;-61
2022/01/07 06:50:23;;;;;;;12.30;5.45;;;;;;;-3.49;67.36;100708.47;4445192;32;32790;-60
2022/01/07 06:52:50;;;;;;;13.30;6.18;;;;;;;-3.58;67.12;100713.38;4448375;32;33552;-61
2022/01/07 06:55:18;;;;;;;15.85;5.05;;;;;;;-3.30;66.92;100702.22;4445607;32;33542;-61
2022/01/07 06:57:48;;;;;;;11.57;5.62;;;;;;;-3.40;67.06;100704.44;4450854;32;32548;-60
2022/01/07 07:00:16;;;;;;;12.90;5.87;;;;;;;-3.51;67.99;100710.81;4438247;32;33960;-61
2022/01/07 07:02:45;;;;;;;15.35;6.57;;;;;;;-2.90;66.47;100703.28;4445738;32;34351;-61
2022/01/07 07:05:13;;;;;;;10.18;4.35;;;;;;;-1.94;63.59;100709.56;4441840;32;33988;-61
2022/01/07 07:07:40;;;;;;;10.70;4.07;;;;;;;-2.84;65.07;100722.63;4449696;32;34013;-61
2022/01/07 07:10:08;;;;;;;11.35;5.15;;;;;;;-2.47;63.05;100725.78;4452223;32;34507;-60
2022/01/07 07:12:36;;;;;;;13.43;5.85;;;;;;;-2.46;63.40;100713.28;4445705;32;33296;-61
2022/01/07 07:15:04;;;;;;;11.48;5.47;;;;;;;-2.49;62.61;100717.09;4444666;32;34530;-61
2022/01/07 07:17:32;;;;;;;15.48;5.72;;;;;;;-2.19;62.25;100722.13;4446244;32;33166;-60
2022/01/07 07:20:00;;;;;;;13.15;5.43;;;;;;;-1.45;60.14;100718.28;4437669;32;34663;-60
2022/01/07 07:22:28;;;;;;;14.10;4.90;;;;;;;-0.78;57.36;100712.50;4435000;32;33599;-60
2022/01/07 07:24:56;;;;;;;10.10;5.20;;;;;;;-2.45;62.10;100735.41;4422108;32;35232;-61
2022/01/07 07:27:24;;;;;;;9.00;5.05;;;;;;;-2.39;62.35;100719.94;4427284;32;34151;-61
2022/01/07 07:29:51;;;;;;;11.35;4.90;;;;;;;-2.39;62.50;100719.94;4446352;32;33927;-60
2022/01/07 07:32:25;;;;;;;12.65;4.43;;;;;;;-2.50;62.55;100736.50;4446897;32;33651;-61
2022/01/07 07:35:02;;;;;;;12.80;5.47;;;;;;;-2.65;63.09;100720.47;4432276;32;34641;-61
2022/01/07 07:37:30;;;;;;;13.75;5.57;;;;;;;-1.71;61.17;100722.22;4443130;32;33485;-61
2022/01/07 07:39:58;;;;;;;12.02;4.93;;;;;;;-1.54;60.40;100722.38;4437622;32;32147;-61
2022/01/07 07:42:25;;;;;;;12.05;4.75;;;;;;;-1.52;60.10;100731.06;4448804;32;33912;-61
2022/01/07 07:44:56;;;;;;;13.02;4.60;;;;;;;-1.32;59.39;100734.84;4444946;32;33560;-61
2022/01/07 07:47:23;;;;;;;15.77;5.57;;;;;;;-1.09;58.71;100725.44;4444924;32;33294;-61
2022/01/07 07:49:51;;;;;;;14.82;6.12;;;;;;;-0.88;58.16;100725.91;4441853;32;33717;-61
2022/01/07 07:52:18;;;;;;;17.73;6.82;;;;;;;-0.77;57.66;100720.31;4441333;32;34474;-61
2022/01/07 07:54:46;;;;;;;17.45;7.47;;;;;;;-0.64;57.45;100723.38;4439686;32;34116;-61
2022/01/07 07:57:14;;;;;;;14.30;6.90;;;;;;;-0.28;55.90;100717.72;4442643;32;33316;-61
2022/01/07 07:59:42;;;;;;;11.95;5.93;;;;;;;-0.70;57.54;100732.91;4447199;32;34518;-61
2022/01/07 08:02:09;;;;;;;10.95;4.93;;;;;;;-0.69;57.49;100729.63;4446606;32;33647;-61
2022/01/07 08:04:38;;;;;;;12.27;5.68;;;;;;;-0.25;55.42;100725.66;4426118;32;33770;-60
2022/01/07 08:07:06;;;;;;;13.38;4.85;;;;;;;0.11;54.44;100732.69;4443613;32;33480;-60
2022/01/07 08:09:38;;;;;;;10.45;4.87;;;;;;;-0.12;54.61;100730.34;4445079;32;33847;-60
2022/01/07 08:12:18;;;;;;;9.70;4.82;;;;;;;0.25;54.08;100730.62;4449529;32;33919;-61
2022/01/07 08:17:32;;;;;;;14.68;5.45;;;;;;;-1.22;58.00;100740.16;4442539;32;33539;-61
2022/01/07 08:20:00;;;;;;;12.18;5.10;;;;;;;0.04;55.14;100730.28;4447597;32;33997;-62
2022/01/07 08:22:28;;;;;;;12.25;4.75;;;;;;;0.32;54.02;100733.03;4448423;32;33895;-62
2022/01/07 08:24:56;;;;;;;12.55;5.50;;;;;;;0.56;53.85;100735.50;4438945;32;33936;-62
2022/01/07 08:27:23;;;;;;;18.37;6.72;;;;;;;0.69;53.05;100731.59;4438261;32;31922;-62
2022/01/07 08:30:13;;;;;;;14.32;5.65;;;;;;;0.67;53.27;100733.97;4446482;32;34591;-61
2022/01/07 08:35:29;;;;;;;17.60;6.87;;;;;;;0.93;52.29;100743.31;4444950;32;34072;-62
2022/01/07 08:37:56;;;;;;;22.35;10.35;;;;;;;1.01;52.55;100741.50;4439334;32;34060;-62
2022/01/07 08:40:24;;;;;;;34.40;16.55;;;;;;;1.24;52.18;100736.97;4445405;32;33741;-62
2022/01/07 08:42:51;;;;;;;26.23;11.90;;;;;;;1.00;52.97;100729.50;4445695;32;34661;-61
2022/01/07 08:45:19;;;;;;;19.35;9.95;;;;;;;1.32;52.60;100740.28;4446744;32;33867;-61
2022/01/07 08:47:47;;;;;;;16.00;6.80;;;;;;;1.17;53.41;100742.22;4446260;32;33381;-62
2022/01/07 08:50:14;;;;;;;11.35;6.20;;;;;;;1.56;52.98;100746.81;4444836;32;34690;-61
2022/01/07 08:52:42;;;;;;;13.98;6.85;;;;;;;1.12;53.92;100741.81;4442310;32;33713;-61
2022/01/07 08:55:10;;;;;;;14.25;7.30;;;;;;;1.29;53.10;100740.84;4440238;32;34421;-62
2022/01/07 08:57:38;;;;;;;12.55;6.35;;;;;;;1.48;52.94;100750.28;4448255;32;33159;-62
2022/01/07 09:00:06;;;;;;;12.95;5.80;;;;;;;1.62;52.86;100747.38;4441143;32;34772;-62
2022/01/07 09:02:34;;;;;;;9.55;4.72;;;;;;;1.69;52.74;100743.78;4441322;32;33947;-61
2022/01/07 09:05:02;;;;;;;10.75;4.75;;;;;;;1.38;53.18;100741.75;4435049;32;33882;-61
2022/01/07 09:07:29;;;;;;;10.35;4.87;;;;;;;1.80;52.23;100737.12;4453433;32;34489;-62
2022/01/07 09:09:57;;;;;;;10.48;5.03;;;;;;;2.01;51.54;100734.03;4435124;32;33627;-62
2022/01/07 09:12:25;;;;;;;10.70;5.40;;;;;;;2.01;52.26;100733.13;4447905;32;33823;-61
2022/01/07 09:14:53;;;;;;;12.13;5.32;;;;;;;2.17;52.19;100731.25;4446412;32;34548;-62
2022/01/07 09:17:21;;;;;;;12.23;6.05;;;;;;;2.03;51.82;100722.31;4445570;32;34286;-61
2022/01/07 09:19:48;;;;;;;11.35;5.28;;;;;;;2.02;52.04;100715.37;4450126;32;33609;-62
2022/01/07 09:22:16;;;;;;;15.93;5.57;;;;;;;2.49;55.66;100712.84;4441290;32;33865;-61
2022/01/07 09:24:44;;;;;;;14.55;6.57;;;;;;;2.70;50.75;100719.00;4450385;32;34069;-62
2022/01/07 09:27:11;;;;;;;11.20;6.45;;;;;;;2.82;49.96;100702.22;4449841;32;33115;-61
2022/01/07 09:29:39;;;;;;;15.63;7.12;;;;;;;3.13;49.16;100707.53;4450073;32;33734;-62
2022/01/07 09:32:07;;;;;;;14.20;5.37;;;;;;;2.72;49.68;100713.31;4442316;32;35517;-62
2022/01/07 09:34:36;;;;;;;14.30;5.53;;;;;;;2.93;48.60;100705.72;4446107;32;34549;-62
2022/01/07 09:37:04;;;;;;;9.73;4.32;;;;;;;3.09;48.36;100705.44;4445565;32;31881;-61
2022/01/07 09:39:33;;;;;;;9.85;3.78;;;;;;;3.15;47.09;100700.88;4447960;32;32707;-61
2022/01/07 09:42:01;;;;;;;9.80;2.87;;;;;;;3.43;45.05;100700.72;4449183;32;35870;-62
2022/01/07 09:44:29;;;;;;;8.48;2.83;;;;;;;3.20;46.44;100694.47;4448074;32;33891;-62
2022/01/07 09:46:57;;;;;;;10.02;3.70;;;;;;;3.34;45.34;100691.50;4447517;32;34167;-61
2022/01/07 09:49:26;;;;;;;10.95;3.97;;;;;;;3.05;45.71;100688.00;4440719;32;33704;-61
2022/01/07 09:51:54;;;;;;;8.05;3.47;;;;;;;2.74;45.40;100680.16;4449134;32;33623;-63
2022/01/07 09:54:21;;;;;;;7.15;3.20;;;;;;;3.54;44.79;100676.97;4443421;32;33979;-62
2022/01/07 09:56:49;;;;;;;8.52;4.03;;;;;;;3.07;44.69;100672.03;4443647;32;33540;-61
2022/01/07 09:59:17;;;;;;;8.43;3.08;;;;;;;3.06;44.83;100669.34;4431994;32;33359;-62
2022/01/07 10:01:58;;;;;;;7.75;3.33;;;;;;;3.91;43.42;100672.41;4446029;32;34772;-62
2022/01/07 10:04:35;;;;;;;6.80;2.92;;;;;;;3.73;44.29;100670.09;4419546;32;33460;-61
2022/01/07 10:07:12;;;;;;;7.87;3.30;;;;;;;3.72;42.80;100670.84;4425098;32;33787;-62
2022/01/07 10:09:41;;;;;;;10.35;4.20;;;;;;;3.87;43.40;100670.38;4446164;32;34651;-61
2022/01/07 10:12:09;;;;;;;9.80;3.83;;;;;;;3.81;43.05;100665.62;4436852;32;34560;-61
2022/01/07 10:14:36;;;;;;;10.23;4.22;;;;;;;3.61;43.44;100661.34;4443085;32;34357;-61
2022/01/07 10:17:05;;;;;;;9.85;3.90;;;;;;;3.81;43.50;100655.38;4430659;32;33345;-61
2022/01/07 10:19:32;;;;;;;8.00;3.95;;;;;;;3.05;45.13;100654.72;4424857;32;33876;-59
2022/01/07 10:22:06;;;;;;;10.77;3.85;;;;;;;4.09;43.55;100653.44;4450444;32;34444;-60
2022/01/07 10:24:58;;;;;;;7.78;3.35;;;;;;;4.08;43.29;100654.22;4444605;32;33909;-60
2022/01/07 10:27:33;;;;;;;14.02;4.10;;;;;;;2.79;45.77;100650.78;4443609;32;34026;-61
2022/01/07 10:30:10;;;;;;;8.88;4.00;;;;;;;4.06;44.43;100642.06;4442790;32;33700;-59
2022/01/07 10:32:38;;;;;;;9.45;4.10;;;;;;;4.05;44.31;100645.38;4426567;32;33755;-60
2022/01/07 10:35:27;;;;;;;9.23;4.03;;;;;;;4.53;43.49;100638.28;4418516;32;32226;-62
2022/01/07 10:38:00;;;;;;;10.18;4.30;;;;;;;3.87;43.19;100629.34;4443037;32;33196;-60
2022/01/07 10:40:35;;;;;;;11.30;4.53;;;;;;;3.51;45.20;100620.31;4445603;32;34061;-61
2022/01/07 10:43:11;;;;;;;;;;;;;;;3.29;45.00;100621.03;4435084;32;33336;-61
2022/01/07 10:45:39;;;;;;;;;;;;;;;3.74;44.82;100622.28;4443537;32;34403;-61
2022/01/07 10:48:07;;;;;;;8.75;3.90;;;;;;;3.50;44.69;100610.88;4437702;32;33834;-61
2022/01/07 10:50:40;;;;;;;11.82;4.70;;;;;;;2.98;45.80;100614.91;4437344;32;34748;-61
2022/01/07 10:53:14;;;;;;;13.20;6.00;;;;;;;3.27;45.48;100607.22;4437735;32;33920;-61
2022/01/07 10:56:01;;;;;;;7.73;2.93;;;;;;;3.24;46.38;100609.50;4432709;32;33870;-61
2022/01/07 10:58:29;;;;;;;9.07;3.87;;;;;;;3.38;45.15;100608.16;4448766;32;34133;-61
2022/01/07 11:00:56;;;;;;;9.23;3.67;;;;;;;3.77;44.74;100606.25;4448921;32;33960;-61
2022/01/07 11:03:24;;;;;;;7.70;2.90;;;;;;;3.99;44.01;100589.37;4442188;32;33770;-61
2022/01/07 11:05:52;;;;;;;8.20;3.50;;;;;;;4.11;43.21;100594.62;4431815;32;34341;-61
2022/01/07 11:08:20;;;;;;;5.55;2.65;;;;;;;4.36;43.22;100602.66;4443885;32;34869;-60
2022/01/07 11:10:48;;;;;;;5.43;2.65;;;;;;;3.85;43.64;100590.78;4446264;32;34022;-61
2022/01/07 11:13:17;;;;;;;7.37;2.87;;;;;;;3.87;42.68;100580.66;4432629;32;33938;-60
2022/01/07 11:15:44;;;;;;;6.15;2.25;;;;;;;4.23;43.29;100592.16;4437132;32;33800;-61
2022/01/07 11:18:12;;;;;;;5.12;2.25;;;;;;;4.37;41.19;100583.06;4452112;32;33464;-61
2022/01/07 11:20:40;;;;;;;5.45;2.40;;;;;;;3.68;42.44;100579.09;4450353;32;34736;-61
2022/01/07 11:23:07;;;;;;;6.50;2.60;;;;;;;4.27;41.40;100572.03;4447103;32;33887;-61
2022/01/07 11:25:35;;;;;;;6.70;2.50;;;;;;;3.81;43.13;100582.72;4452494;32;34903;-61
2022/01/07 11:28:03;;;;;;;7.62;3.42;;;;;;;4.55;42.11;100573.38;4452317;32;33268;-62
2022/01/07 11:30:35;;;;;;;5.43;2.62;;;;;;;4.62;39.74;100571.44;4433401;32;33891;-62
2022/01/07 11:33:19;;;;;;;5.53;2.70;;;;;;;4.12;41.49;100571.66;4419259;32;34507;-61
2022/01/07 11:35:47;;;;;;;6.45;2.62;;;;;;;4.16;41.63;100564.25;4441429;32;34716;-62
2022/01/07 11:38:31;;;;;;;9.52;3.55;;;;;;;4.01;42.66;100557.06;4444381;32;33567;-62